Time;durP1;ratioP1;P1;durP2;ratioP2;P2;SDS_P1;SDS_P2;PMS_P1;PMS_P2;Temp;Humidity;BMP_temperature;BMP_pressure;BME280_temperature;BME280_humidity;BME280_pressure;Samples;Min_cycle;Max_cycle;Signal;HPM_P1;HPM_P2
2022/01/22 00:00:56;;;;;;;23.23;19.03;;;5.30;99.90;;;;;;4994090;28;20228;-76
2022/01/22 00:03:23;;;;;;;23.90;19.80;;;5.40;99.90;;;;;;5005432;28;20197;-75
2022/01/22 00:05:50;;;;;;;29.13;20.20;;;5.30;99.90;;;;;;5016104;28;20201;-75
2022/01/22 00:08:18;;;;;;;28.60;21.20;;;5.20;99.90;;;;;;5005754;28;20690;-76
2022/01/22 00:10:45;;;;;;;23.83;19.77;;;5.30;99.90;;;;;;4986112;28;20200;-75
2022/01/22 00:16:00;;;;;;;29.40;20.40;;;5.40;99.90;;;;;;4990007;28;20197;-75
2022/01/22 00:18:27;;;;;;;26.13;18.83;;;5.40;99.90;;;;;;4990677;28;20217;-75
2022/01/22 00:20:54;;;;;;;25.17;18.73;;;5.40;99.90;;;;;;5001949;28;20246;-76
2022/01/22 00:23:26;;;;;;;26.07;19.83;;;5.40;99.90;;;;;;5002183;28;20548;-75
2022/01/22 00:25:53;;;;;;;21.67;17.60;;;5.40;99.90;;;;;;5009717;28;20205;-75
2022/01/22 00:28:21;;;;;;;27.00;19.67;;;5.40;99.90;;;;;;4997476;28;20227;-76
2022/01/22 00:31:08;;;;;;;27.57;18.80;;;5.40;99.90;;;;;;5005189;28;20216;-75
2022/01/22 00:33:36;;;;;;;30.30;18.80;;;5.40;99.90;;;;;;4999465;28;20207;-75
2022/01/22 00:36:05;;;;;;;21.20;17.17;;;5.30;99.90;;;;;;4996801;28;20207;-75
2022/01/22 00:38:32;;;;;;;23.67;17.43;;;5.40;99.90;;;;;;5011924;28;20582;-75
2022/01/22 00:41:00;;;;;;;26.13;18.30;;;5.40;99.90;;;;;;5010420;28;20238;-75
2022/01/22 00:43:27;;;;;;;25.57;17.80;;;5.40;99.90;;;;;;4998635;28;20206;-75
2022/01/22 00:45:59;;;;;;;26.53;16.43;;;5.40;99.90;;;;;;5010523;28;20215;-75
2022/01/22 00:48:28;;;;;;;25.20;16.57;;;5.30;99.90;;;;;;4993009;28;20225;-75
2022/01/22 00:50:56;;;;;;;22.43;16.80;;;5.30;99.90;;;;;;4995086;28;20206;-76
2022/01/22 00:53:24;;;;;;;24.73;16.47;;;5.40;99.90;;;;;;4995457;28;20205;-75
2022/01/22 00:55:52;;;;;;;24.20;17.63;;;5.40;99.90;;;;;;5002193;28;20193;-75
2022/01/22 00:58:19;;;;;;;26.50;17.93;;;5.40;99.90;;;;;;4993074;28;20226;-75
2022/01/22 01:01:00;;;;;;;23.23;18.87;;;5.30;99.90;;;;;;5008152;28;20224;-76
2022/01/22 01:03:32;;;;;;;24.67;18.33;;;5.30;99.90;;;;;;4999542;28;20541;-75
2022/01/22 01:06:01;;;;;;;25.50;17.07;;;5.30;99.90;;;;;;5016252;28;20207;-76
2022/01/22 01:08:31;;;;;;;25.80;18.40;;;5.30;99.90;;;;;;5000691;28;20264;-75
2022/01/22 01:10:59;;;;;;;25.83;17.70;;;5.30;99.90;;;;;;5006777;28;20209;-75
2022/01/22 01:13:28;;;;;;;25.63;17.13;;;5.40;99.90;;;;;;5006546;28;20657;-76
2022/01/22 01:16:01;;;;;;;33.83;18.80;;;5.40;99.90;;;;;;4987726;28;20198;-75
2022/01/22 01:32:49;;;;;;;23.60;17.73;;;5.30;99.90;;;;;;4991227;28;20190;-75
2022/01/22 01:35:18;;;;;;;31.33;19.07;;;5.30;99.90;;;;;;4988480;28;20200;-75
2022/01/22 01:37:46;;;;;;;30.73;20.10;;;5.40;99.90;;;;;;4997393;28;20228;-75
2022/01/22 01:43:04;;;;;;;32.50;20.53;;;5.30;99.90;;;;;;5009449;28;20194;-75
2022/01/22 01:45:32;;;;;;;24.20;18.47;;;5.30;99.90;;;;;;4990743;28;20202;-76
2022/01/22 01:48:05;;;;;;;26.03;19.73;;;5.30;99.90;;;;;;4995657;28;20225;-76
2022/01/22 01:50:38;;;;;;;25.13;19.23;;;5.40;99.90;;;;;;4992840;28;20193;-75
2022/01/22 01:53:19;;;;;;;29.30;19.63;;;5.40;99.90;;;;;;5009992;28;20228;-75
2022/01/22 01:56:01;;;;;;;30.23;20.67;;;5.30;99.90;;;;;;5008320;28;20554;-75
2022/01/22 01:58:32;;;;;;;28.30;19.07;;;5.30;99.90;;;;;;4998782;28;20240;-76
2022/01/22 02:01:00;;;;;;;25.63;19.23;;;5.30;99.90;;;;;;4993753;28;20214;-76
2022/01/22 02:03:42;;;;;;;27.07;19.10;;;5.30;99.90;;;;;;5007065;28;20197;-75
2022/01/22 02:06:20;;;;;;;25.20;19.30;;;5.30;99.90;;;;;;4992806;28;20221;-75
2022/01/22 02:08:48;;;;;;;25.13;20.53;;;5.20;99.90;;;;;;4997363;28;20211;-76
2022/01/22 02:11:25;;;;;;;26.73;20.40;;;5.30;99.90;;;;;;4986822;28;20200;-76
2022/01/22 02:25:55;;;;;;;26.57;20.30;;;5.30;99.90;;;;;;4993342;28;20196;-75
2022/01/22 02:28:23;;;;;;;27.23;21.40;;;5.40;99.90;;;;;;4992270;28;20217;-75
2022/01/22 02:30:56;;;;;;;25.47;20.37;;;5.30;99.90;;;;;;5002878;28;20513;-75
2022/01/22 02:33:50;;;;;;;28.70;20.67;;;5.30;99.90;;;;;;5004628;28;20212;-75
2022/01/22 02:36:22;;;;;;;27.03;20.17;;;5.40;99.90;;;;;;4984670;28;20211;-75
2022/01/22 02:38:57;;;;;;;27.30;17.97;;;5.30;99.90;;;;;;5003836;28;20214;-76
2022/01/22 02:41:26;;;;;;;28.13;21.10;;;5.30;99.90;;;;;;4983296;28;20232;-76
2022/01/22 02:43:55;;;;;;;29.93;21.10;;;5.40;99.90;;;;;;5001018;28;20205;-76
2022/01/22 02:46:25;;;;;;;31.20;20.47;;;5.30;99.90;;;;;;4994825;28;20190;-75
2022/01/22 02:48:55;;;;;;;27.73;21.27;;;5.30;99.90;;;;;;5007972;28;20585;-75
2022/01/22 02:51:23;;;;;;;30.03;21.33;;;5.30;99.90;;;;;;5013164;28;20198;-76
2022/01/22 02:53:55;;;;;;;27.43;20.57;;;5.30;99.90;;;;;;4997798;28;20213;-76
2022/01/22 02:56:23;;;;;;;27.83;20.90;;;5.30;99.90;;;;;;4991695;28;20200;-75
2022/01/22 02:58:51;;;;;;;29.30;21.27;;;5.30;99.90;;;;;;5001685;28;20194;-77
2022/01/22 03:01:19;;;;;;;27.30;19.67;;;5.30;99.90;;;;;;4997393;28;20208;-76
2022/01/22 03:03:47;;;;;;;30.97;20.57;;;5.40;99.90;;;;;;5007449;28;20202;-76
2022/01/22 03:06:15;;;;;;;29.40;21.67;;;5.30;99.90;;;;;;4994000;28;20276;-76
2022/01/22 03:08:45;;;;;;;32.47;21.33;;;5.40;99.90;;;;;;5007171;28;20228;-76
2022/01/22 03:11:23;;;;;;;28.73;22.27;;;5.40;99.90;;;;;;4994684;28;20198;-76
2022/01/22 03:16:51;;;;;;;29.83;21.63;;;5.40;99.90;;;;;;5007213;28;20689;-75
2022/01/22 03:19:32;;;;;;;30.23;22.03;;;5.50;99.90;;;;;;4994115;28;20213;-75
2022/01/22 03:22:13;;;;;;;34.57;22.20;;;5.40;99.90;;;;;;4992150;28;20217;-76
2022/01/22 03:27:29;;;;;;;27.67;20.77;;;5.50;99.90;;;;;;4991428;28;20224;-76
2022/01/22 03:29:57;;;;;;;32.47;21.83;;;5.50;99.90;;;;;;5005642;28;20196;-75
2022/01/22 03:32:27;;;;;;;27.53;22.17;;;5.50;99.90;;;;;;4991263;28;20197;-75
2022/01/22 03:34:58;;;;;;;28.93;21.47;;;5.50;99.90;;;;;;5002899;28;20207;-75
2022/01/22 03:37:27;;;;;;;28.47;22.00;;;5.50;99.90;;;;;;4992085;28;20220;-75
2022/01/22 03:39:56;;;;;;;26.97;20.23;;;5.50;99.90;;;;;;5001290;28;20203;-75
2022/01/22 03:42:23;;;;;;;28.83;20.93;;;5.50;99.90;;;;;;5008654;28;20227;-75
2022/01/22 03:44:52;;;;;;;24.77;19.47;;;5.50;99.90;;;;;;4991585;28;20570;-75
2022/01/22 03:47:20;;;;;;;26.53;19.47;;;5.60;99.90;;;;;;4991066;28;20224;-75
2022/01/22 03:49:47;;;;;;;27.63;18.17;;;5.50;99.90;;;;;;5003799;28;20591;-75
2022/01/22 03:52:17;;;;;;;28.63;20.03;;;5.40;99.90;;;;;;4988045;28;20198;-76
2022/01/22 03:54:45;;;;;;;22.80;18.40;;;5.50;99.90;;;;;;5000875;28;20202;-75
2022/01/22 03:57:17;;;;;;;24.87;18.30;;;5.50;99.90;;;;;;4991422;28;20221;-76
2022/01/22 03:59:48;;;;;;;23.67;18.20;;;5.50;99.90;;;;;;4998772;28;20194;-75
2022/01/22 04:02:58;;;;;;;22.37;18.20;;;5.50;99.90;;;;;;4990364;28;20213;-75
2022/01/22 04:05:23;;;;;;;22.60;17.93;;;5.50;99.90;;;;;;4976658;28;20196;-76
2022/01/22 04:08:14;;;;;;;20.63;17.27;;;5.40;99.90;;;;;;4990764;28;20222;-78
2022/01/22 04:10:41;;;;;;;23.80;17.97;;;5.40;99.90;;;;;;4992117;28;20217;-76
2022/01/22 04:13:12;;;;;;;24.90;18.23;;;5.50;99.90;;;;;;4994954;28;20199;-75
2022/01/22 04:15:41;;;;;;;22.53;18.27;;;5.50;99.90;;;;;;4987292;28;20205;-75
2022/01/22 04:26:53;;;;;;;24.37;17.93;;;5.50;99.90;;;;;;4986818;28;20213;-75
2022/01/22 04:29:22;;;;;;;23.63;17.73;;;5.50;99.90;;;;;;5005158;28;20197;-76
2022/01/22 04:31:49;;;;;;;23.63;18.33;;;5.60;99.90;;;;;;4984273;28;20253;-75
2022/01/22 04:34:18;;;;;;;24.63;18.77;;;5.50;99.90;;;;;;4983824;28;20201;-75
2022/01/22 04:36:46;;;;;;;25.47;18.57;;;5.50;99.90;;;;;;5003213;28;20218;-75
2022/01/22 04:39:14;;;;;;;24.47;17.67;;;5.50;99.90;;;;;;5005568;28;20206;-76
2022/01/22 04:41:41;;;;;;;21.03;16.73;;;5.60;99.90;;;;;;4991527;28;20217;-75
2022/01/22 04:44:09;;;;;;;22.77;17.80;;;5.50;99.90;;;;;;4990750;28;20209;-76
2022/01/22 04:46:51;;;;;;;23.00;16.40;;;5.50;99.90;;;;;;5007297;28;20199;-76
2022/01/22 04:54:59;;;;;;;21.53;16.17;;;5.70;99.90;;;;;;5006798;28;20193;-75
2022/01/22 04:57:27;;;;;;;24.93;17.03;;;5.80;99.90;;;;;;4989216;28;20228;-75
2022/01/22 04:59:55;;;;;;;23.43;16.57;;;5.70;99.90;;;;;;4991421;28;20555;-75
2022/01/22 05:02:23;;;;;;;23.87;16.63;;;5.70;99.90;;;;;;5007316;28;20226;-75
2022/01/22 05:05:23;;;;;;;24.23;16.50;;;5.70;99.90;;;;;;4985173;28;20714;-75
2022/01/22 05:08:23;;;;;;;22.70;16.20;;;5.70;99.90;;;;;;4978880;28;20237;-75
2022/01/22 05:11:24;;;;;;;23.83;17.13;;;5.70;99.90;;;;;;4989398;28;20195;-75
2022/01/22 05:13:53;;;;;;;23.33;16.63;;;5.70;99.90;;;;;;4991564;28;20194;-76
2022/01/22 05:16:21;;;;;;;23.40;16.63;;;5.70;99.90;;;;;;4987990;28;20211;-75
2022/01/22 05:18:54;;;;;;;25.77;16.87;;;5.70;99.90;;;;;;4972285;28;20668;-75
2022/01/22 05:21:26;;;;;;;22.70;17.70;;;5.60;99.90;;;;;;4972177;28;20205;-75
2022/01/22 05:23:57;;;;;;;27.17;17.57;;;5.70;99.90;;;;;;4987422;28;20203;-75
2022/01/22 05:27:10;;;;;;;23.27;18.03;;;5.70;99.90;;;;;;4990846;28;20198;-75
2022/01/22 05:30:04;;;;;;;27.27;18.83;;;5.70;99.90;;;;;;4992946;28;20205;-75
2022/01/22 05:33:27;;;;;;;25.87;19.13;;;5.70;99.90;;;;;;4998629;28;20217;-79
2022/01/22 05:38:52;;;;;;;26.90;18.80;;;5.70;99.90;;;;;;5008980;28;20211;-76
2022/01/22 05:41:19;;;;;;;26.40;18.70;;;5.70;99.90;;;;;;4995057;28;20206;-75
2022/01/22 05:43:47;;;;;;;26.27;18.67;;;5.80;99.90;;;;;;5010024;28;20595;-75
2022/01/22 05:46:14;;;;;;;25.23;17.90;;;5.70;99.90;;;;;;5006757;28;20201;-75
2022/01/22 05:48:42;;;;;;;25.53;19.03;;;5.70;99.90;;;;;;4989024;28;20689;-76
2022/01/22 05:51:37;;;;;;;26.10;19.20;;;5.70;99.90;;;;;;4992791;28;20674;-76
2022/01/22 05:54:32;;;;;;;24.60;18.13;;;5.70;99.90;;;;;;4993965;28;20206;-76
2022/01/22 05:59:46;;;;;;;25.50;19.17;;;5.70;99.90;;;;;;4987975;28;20214;-75
2022/01/22 06:02:16;;;;;;;24.37;17.93;;;5.80;99.90;;;;;;5003484;28;20219;-76
2022/01/22 06:04:47;;;;;;;24.87;17.90;;;5.80;99.90;;;;;;5013747;28;20194;-75
2022/01/22 06:07:18;;;;;;;24.87;16.57;;;5.80;99.90;;;;;;5007802;28;20222;-75
2022/01/22 06:10:02;;;;;;;26.53;18.37;;;5.80;99.90;;;;;;5008156;28;20695;-75
2022/01/22 06:12:42;;;;;;;25.53;18.03;;;5.80;99.90;;;;;;4993614;28;20204;-75
2022/01/22 06:15:11;;;;;;;26.23;18.40;;;5.80;99.90;;;;;;4990705;28;20212;-77
2022/01/22 06:17:55;;;;;;;27.93;18.53;;;5.90;99.90;;;;;;5007820;28;20233;-75
2022/01/22 06:21:03;;;;;;;29.87;18.83;;;5.90;99.90;;;;;;4993966;28;20199;-75
2022/01/22 06:23:31;;;;;;;25.27;17.57;;;5.90;99.90;;;;;;4992728;28;20231;-75
2022/01/22 06:26:00;;;;;;;30.77;18.33;;;5.90;99.90;;;;;;4990286;28;20195;-76
2022/01/22 06:28:28;;;;;;;30.77;18.30;;;5.90;99.90;;;;;;5006424;28;20229;-75
2022/01/22 06:30:56;;;;;;;27.10;17.43;;;5.90;99.90;;;;;;4994042;28;20210;-76
2022/01/22 06:33:28;;;;;;;26.83;18.30;;;6.10;99.90;;;;;;4991748;28;20199;-74
2022/01/22 06:35:55;;;;;;;26.27;17.80;;;6.00;99.90;;;;;;5008099;28;20206;-76
2022/01/22 06:38:23;;;;;;;25.20;17.13;;;5.90;99.90;;;;;;5000855;28;20234;-75
2022/01/22 06:44:34;;;;;;;24.53;16.60;;;5.90;99.90;;;;;;4992395;28;20222;-76
2022/01/22 06:47:26;;;;;;;22.20;15.87;;;5.90;99.90;;;;;;4993444;28;20227;-75
2022/01/22 06:50:14;;;;;;;27.13;16.00;;;6.00;99.90;;;;;;4999008;28;20199;-75
2022/01/22 06:53:09;;;;;;;27.00;16.63;;;6.00;99.90;;;;;;4996965;28;20274;-75
2022/01/22 06:55:45;;;;;;;27.37;15.07;;;6.00;99.90;;;;;;4989501;28;20207;-75
2022/01/22 06:58:15;;;;;;;23.67;16.37;;;6.00;99.90;;;;;;4990748;28;20222;-74
2022/01/22 07:00:50;;;;;;;23.50;16.83;;;6.00;99.90;;;;;;4992346;28;20199;-74
2022/01/22 07:03:34;;;;;;;27.60;17.23;;;6.00;99.90;;;;;;5001808;28;20682;-74
2022/01/22 07:06:22;;;;;;;22.13;16.27;;;6.00;99.90;;;;;;4971699;28;20210;-75
2022/01/22 07:08:49;;;;;;;23.97;16.00;;;5.90;99.90;;;;;;4990821;28;20201;-75
2022/01/22 07:11:19;;;;;;;26.30;16.30;;;5.90;99.90;;;;;;4984170;28;20206;-74
2022/01/22 07:13:48;;;;;;;25.10;14.63;;;6.00;99.90;;;;;;4989052;28;20199;-74
2022/01/22 07:16:21;;;;;;;27.70;16.43;;;6.00;99.90;;;;;;4992808;28;20652;-75
2022/01/22 07:19:02;;;;;;;23.30;15.70;;;6.00;99.90;;;;;;4994870;28;20269;-75
2022/01/22 07:21:31;;;;;;;20.07;14.93;;;6.00;99.90;;;;;;4991306;28;20206;-74
2022/01/22 07:24:26;;;;;;;23.80;15.77;;;6.00;99.90;;;;;;4991475;28;20231;-74
2022/01/22 07:26:58;;;;;;;21.57;14.67;;;6.10;99.90;;;;;;4987431;28;20234;-74
2022/01/22 07:29:31;;;;;;;25.60;14.10;;;6.10;99.90;;;;;;4986497;28;20202;-74
2022/01/22 07:32:02;;;;;;;25.97;14.90;;;6.10;99.90;;;;;;4990100;28;20200;-74
2022/01/22 07:34:30;;;;;;;22.73;13.73;;;6.10;99.90;;;;;;4989076;28;20191;-75
2022/01/22 07:37:24;;;;;;;19.87;13.33;;;6.00;99.90;;;;;;5005811;28;20221;-74
2022/01/22 07:39:53;;;;;;;23.90;14.57;;;6.10;99.90;;;;;;4984952;28;20206;-75
2022/01/22 07:42:42;;;;;;;18.93;13.40;;;6.00;99.90;;;;;;4991246;28;20207;-75
2022/01/22 07:45:42;;;;;;;20.30;13.47;;;6.10;99.90;;;;;;4973830;28;20216;-75
2022/01/22 07:48:18;;;;;;;20.73;12.73;;;6.10;99.90;;;;;;5006989;28;20214;-74
2022/01/22 07:51:17;;;;;;;21.00;12.50;;;6.00;99.90;;;;;;4989234;28;20257;-74
2022/01/22 07:53:46;;;;;;;19.30;14.03;;;6.10;99.90;;;;;;4998463;28;20203;-74
2022/01/22 07:56:24;;;;;;;20.87;13.30;;;6.10;99.90;;;;;;5005231;28;20200;-75
2022/01/22 07:58:51;;;;;;;21.27;13.67;;;6.10;99.90;;;;;;5007507;28;20205;-75
2022/01/22 08:05:14;;;;;;;24.40;14.90;;;6.20;99.90;;;;;;4992477;28;20203;-74
2022/01/22 08:08:20;;;;;;;23.03;15.57;;;6.10;99.90;;;;;;4984062;28;20221;-73
2022/01/22 08:11:15;;;;;;;23.57;14.17;;;6.10;99.90;;;;;;4986440;28;20210;-73
2022/01/22 08:13:51;;;;;;;24.83;15.30;;;6.20;99.90;;;;;;5005150;28;20203;-74
2022/01/22 08:16:18;;;;;;;25.10;14.83;;;6.20;99.90;;;;;;4992108;28;20204;-74
2022/01/22 08:18:46;;;;;;;22.67;14.70;;;6.20;99.90;;;;;;4987189;28;20230;-74
2022/01/22 08:21:15;;;;;;;24.70;15.80;;;6.20;99.90;;;;;;5007134;28;20201;-74
2022/01/22 08:24:01;;;;;;;19.60;14.60;;;6.20;99.90;;;;;;4992077;28;20214;-73
2022/01/22 08:27:05;;;;;;;22.87;15.10;;;6.20;99.90;;;;;;4990604;28;20228;-74
2022/01/22 08:29:32;;;;;;;26.67;15.83;;;6.20;99.90;;;;;;4991819;28;20198;-73
2022/01/22 08:32:11;;;;;;;25.87;15.93;;;6.20;99.90;;;;;;5007582;28;20200;-74
2022/01/22 08:37:47;;;;;;;24.70;15.93;;;6.20;99.90;;;;;;4990788;28;20218;-74
2022/01/22 08:40:22;;;;;;;22.63;15.30;;;6.20;99.90;;;;;;4986159;28;20665;-75
2022/01/22 08:42:50;;;;;;;23.37;15.00;;;6.20;99.90;;;;;;4989421;28;20203;-78
2022/01/22 08:45:18;;;;;;;25.13;15.90;;;6.20;99.90;;;;;;4987683;28;20210;-75
2022/01/22 08:47:47;;;;;;;25.77;17.13;;;6.20;99.90;;;;;;4988612;28;20230;-75
2022/01/22 08:50:14;;;;;;;26.10;18.40;;;6.20;99.90;;;;;;4990286;28;20206;-76
2022/01/22 08:52:42;;;;;;;28.10;17.33;;;6.30;99.90;;;;;;4991416;28;20199;-76
2022/01/22 08:55:11;;;;;;;30.03;19.83;;;6.30;99.90;;;;;;5007216;28;20202;-76
2022/01/22 08:57:39;;;;;;;33.03;20.67;;;6.20;99.90;;;;;;4991958;28;20600;-76
2022/01/22 09:00:13;;;;;;;30.87;20.10;;;6.10;99.90;;;;;;4990728;28;20210;-75
2022/01/22 09:03:03;;;;;;;33.53;20.13;;;6.20;99.90;;;;;;5001554;28;20212;-77
2022/01/22 09:05:59;;;;;;;31.43;20.07;;;6.20;99.90;;;;;;5002259;28;20212;-75
2022/01/22 09:08:34;;;;;;;29.13;18.27;;;6.30;99.90;;;;;;4990888;28;20222;-75
2022/01/22 09:11:20;;;;;;;27.10;18.20;;;6.40;99.90;;;;;;5002992;28;20201;-75
2022/01/22 09:14:11;;;;;;;25.03;18.57;;;6.30;99.90;;;;;;4994743;28;20215;-77
2022/01/22 09:16:45;;;;;;;28.33;18.73;;;6.30;99.90;;;;;;4995198;28;20220;-77
2022/01/22 09:19:13;;;;;;;27.80;18.87;;;6.40;99.90;;;;;;5010721;28;20210;-77
2022/01/22 09:21:43;;;;;;;30.77;19.23;;;6.40;99.90;;;;;;4993602;28;20543;-77
2022/01/22 09:24:16;;;;;;;28.80;19.00;;;6.40;99.90;;;;;;5009763;28;20215;-77
2022/01/22 09:27:04;;;;;;;29.57;20.07;;;6.50;99.90;;;;;;4987533;28;20579;-76
2022/01/22 09:29:36;;;;;;;24.70;17.47;;;6.40;99.90;;;;;;5003905;28;20215;-76
2022/01/22 09:32:05;;;;;;;22.80;16.97;;;6.50;99.90;;;;;;4988986;28;20208;-76
2022/01/22 09:34:51;;;;;;;25.73;17.80;;;6.50;99.90;;;;;;4998121;28;20264;-76
2022/01/22 09:37:27;;;;;;;25.80;17.50;;;6.30;99.90;;;;;;4999496;28;20230;-76
2022/01/22 09:40:18;;;;;;;25.37;17.53;;;6.30;99.90;;;;;;4983796;28;20211;-76
2022/01/22 09:43:13;;;;;;;25.67;17.47;;;6.40;99.90;;;;;;5000230;28;20206;-76
2022/01/22 09:46:21;;;;;;;24.13;17.30;;;6.30;99.90;;;;;;4992857;28;20196;-76
2022/01/22 09:49:36;;;;;;;24.97;15.80;;;6.30;99.90;;;;;;4991647;28;20319;-76
2022/01/22 09:52:24;;;;;;;24.27;16.57;;;6.30;99.90;;;;;;4995262;28;20604;-76
2022/01/22 09:55:11;;;;;;;22.70;15.53;;;6.30;99.90;;;;;;4999012;28;20544;-76
2022/01/22 09:58:08;;;;;;;22.20;15.67;;;6.30;99.90;;;;;;4988533;28;20229;-77
2022/01/22 10:01:20;;;;;;;21.10;15.70;;;6.20;99.90;;;;;;4999658;28;20764;-76
2022/01/22 10:03:50;;;;;;;20.90;15.00;;;6.20;99.90;;;;;;4985362;28;20227;-77
2022/01/22 10:06:57;;;;;;;;;;;;;;;;;;;;;
2022/01/22 10:10:00;;;;;;;22.53;15.10;;;6.30;99.90;;;;;;4994828;28;20211;-77
2022/01/22 10:12:45;;;;;;;21.70;15.37;;;6.20;99.90;;;;;;4995047;28;20201;-76
2022/01/22 10:15:33;;;;;;;;;;;;;;;;;;;;;
2022/01/22 10:18:22;;;;;;;24.53;16.00;;;6.40;99.90;;;;;;5010698;28;20227;-76
2022/01/22 10:20:50;;;;;;;21.20;16.23;;;6.40;99.90;;;;;;4971087;28;20211;-75
2022/01/22 10:23:26;;;;;;;22.40;15.70;;;6.40;99.90;;;;;;4992798;28;20204;-75
2022/01/22 10:26:11;;;;;;;23.30;16.53;;;6.40;99.90;;;;;;4993933;28;20580;-75
2022/01/22 10:28:46;;;;;;;23.10;16.23;;;6.30;99.90;;;;;;4988331;28;20223;-75
2022/01/22 10:31:24;;;;;;;24.77;16.47;;;6.40;99.90;;;;;;4990274;28;20573;-78
2022/01/22 10:34:40;;;;;;;;;;;;;;;;;;;;;
2022/01/22 10:38:00;;;;;;;21.17;16.67;;;6.50;99.90;;;;;;4988310;28;20234;-75
2022/01/22 10:40:47;;;;;;;25.27;16.57;;;6.60;99.90;;;;;;4986353;28;20347;-75
2022/01/22 10:43:20;;;;;;;22.90;16.10;;;6.60;99.90;;;;;;4987445;28;20662;-75
2022/01/22 10:46:11;;;;;;;24.67;17.17;;;6.60;99.90;;;;;;5006447;28;20223;-77
2022/01/22 10:48:42;;;;;;;26.10;16.83;;;6.60;99.90;;;;;;5005410;28;20224;-75
2022/01/22 10:51:26;;;;;;;23.20;16.23;;;6.50;99.90;;;;;;4999223;28;20211;-76
2022/01/22 10:54:01;;;;;;;24.17;16.20;;;6.50;99.90;;;;;;5002240;28;20576;-75
2022/01/22 10:56:30;;;;;;;25.07;16.13;;;6.50;99.90;;;;;;4991599;28;20199;-76
2022/01/22 10:59:02;;;;;;;23.50;16.37;;;6.50;99.90;;;;;;4989593;28;20210;-76
2022/01/22 11:01:46;;;;;;;26.37;16.13;;;6.60;99.90;;;;;;4981798;28;20203;-75
2022/01/22 11:04:15;;;;;;;24.03;16.47;;;6.50;99.90;;;;;;5002223;28;20203;-75
2022/01/22 11:06:52;;;;;;;23.33;16.17;;;6.50;99.90;;;;;;5002649;28;20203;-75
2022/01/22 11:09:26;;;;;;;26.00;16.20;;;6.50;99.90;;;;;;5001965;28;20199;-76
2022/01/22 11:11:55;;;;;;;23.33;15.03;;;6.70;99.90;;;;;;4986331;28;20206;-76
2022/01/22 11:14:22;;;;;;;20.80;15.13;;;6.60;99.90;;;;;;4989869;28;20579;-75
2022/01/22 11:17:02;;;;;;;19.80;14.30;;;6.60;99.90;;;;;;4988363;28;20230;-75
2022/01/22 11:19:33;;;;;;;20.40;14.73;;;6.60;99.90;;;;;;4993408;28;20552;-75
2022/01/22 11:22:05;;;;;;;20.00;14.13;;;6.60;99.90;;;;;;4999275;28;20206;-75
2022/01/22 11:24:35;;;;;;;20.23;14.33;;;6.60;99.90;;;;;;4989285;28;20219;-75
2022/01/22 11:27:09;;;;;;;19.67;14.23;;;6.60;99.90;;;;;;5005053;28;20230;-75
2022/01/22 11:29:49;;;;;;;20.80;13.63;;;6.60;99.90;;;;;;4983412;28;20566;-76
2022/01/22 11:32:20;;;;;;;19.40;13.50;;;6.70;99.90;;;;;;4988481;28;20684;-75
2022/01/22 11:34:50;;;;;;;19.90;13.57;;;6.80;99.90;;;;;;4988345;28;20200;-75
2022/01/22 11:37:25;;;;;;;15.73;11.40;;;6.80;99.90;;;;;;4990043;28;20232;-75
2022/01/22 11:40:11;;;;;;;17.20;12.03;;;6.70;99.90;;;;;;5006415;28;20211;-75
2022/01/22 11:42:56;;;;;;;15.87;11.43;;;6.90;99.90;;;;;;4990483;28;20212;-76
2022/01/22 11:45:26;;;;;;;12.70;10.17;;;6.90;99.90;;;;;;4988410;28;20552;-75
2022/01/22 11:48:39;;;;;;;;;;;;;;;;;;;;;
2022/01/22 11:51:26;;;;;;;14.73;8.47;;;6.90;99.90;;;;;;4990459;28;20677;-75
2022/01/22 11:54:06;;;;;;;10.43;8.90;;;6.90;99.90;;;;;;5002159;28;20231;-75
2022/01/22 11:56:43;;;;;;;12.03;9.10;;;6.80;99.90;;;;;;4988971;28;20190;-75
2022/01/22 11:59:24;;;;;;;10.90;9.00;;;6.80;99.90;;;;;;4986511;28;20207;-75
2022/01/22 12:02:04;;;;;;;12.17;9.20;;;6.80;99.90;;;;;;4981620;28;20664;-75
2022/01/22 12:04:52;;;;;;;11.60;8.60;;;7.00;99.90;;;;;;4987253;28;20199;-75
2022/01/22 12:07:24;;;;;;;10.23;8.17;;;7.00;99.90;;;;;;4987448;28;20220;-75
2022/01/22 12:16:14;;;;;;;6.97;4.87;;;6.80;99.90;;;;;;4985492;28;20560;-74
2022/01/22 12:18:54;;;;;;;5.37;4.33;;;6.80;99.90;;;;;;4985628;28;20219;-75
2022/01/22 12:21:37;;;;;;;7.20;5.03;;;6.90;99.90;;;;;;5004669;28;20188;-75
2022/01/22 12:24:07;;;;;;;6.40;4.50;;;7.10;99.90;;;;;;4989360;28;20521;-75
2022/01/22 12:26:53;;;;;;;5.80;4.37;;;7.10;99.90;;;;;;4999371;28;20219;-76
2022/01/22 12:29:42;;;;;;;6.10;4.70;;;7.20;99.90;;;;;;4986122;28;20214;-75
2022/01/22 12:32:25;;;;;;;5.57;4.00;;;7.10;99.90;;;;;;5005492;28;20203;-76
2022/01/22 12:34:56;;;;;;;5.60;4.10;;;7.10;99.90;;;;;;5005981;28;20203;-75
2022/01/22 12:37:25;;;;;;;5.03;4.23;;;7.20;99.90;;;;;;4997252;28;20223;-75
2022/01/22 12:39:54;;;;;;;10.77;5.07;;;7.30;99.90;;;;;;4987473;28;20214;-75
2022/01/22 12:42:31;;;;;;;5.50;3.90;;;7.20;99.90;;;;;;4981395;28;20192;-75
2022/01/22 12:45:00;;;;;;;4.77;4.17;;;7.10;99.90;;;;;;4984661;28;20195;-76
2022/01/22 12:47:29;;;;;;;7.70;5.07;;;7.10;99.90;;;;;;5004151;28;20228;-74
2022/01/22 12:50:01;;;;;;;7.17;6.00;;;7.10;99.90;;;;;;5000634;28;20682;-77
2022/01/22 12:52:33;;;;;;;7.93;6.37;;;6.90;99.90;;;;;;4987547;28;20212;-75
2022/01/22 12:55:01;;;;;;;8.70;6.57;;;6.90;99.90;;;;;;4989272;28;20218;-74
2022/01/22 12:57:32;;;;;;;8.43;7.07;;;6.80;99.90;;;;;;4989258;28;20811;-74
2022/01/22 13:00:08;;;;;;;10.10;7.30;;;6.80;99.90;;;;;;5006818;28;20231;-74
2022/01/22 13:02:37;;;;;;;10.27;6.93;;;6.80;99.90;;;;;;4992210;28;20544;-74
2022/01/22 13:05:06;;;;;;;11.17;6.93;;;6.80;99.90;;;;;;5005643;28;20211;-74
2022/01/22 13:08:03;;;;;;;10.57;6.80;;;6.70;99.90;;;;;;5006729;28;20685;-74
2022/01/22 13:11:08;;;;;;;8.13;5.90;;;6.70;99.90;;;;;;4989895;28;20207;-75
2022/01/22 13:13:39;;;;;;;9.33;6.17;;;6.80;99.90;;;;;;5006554;28;20586;-74
2022/01/22 13:16:09;;;;;;;8.73;6.40;;;6.80;99.90;;;;;;5006925;28;20277;-75
2022/01/22 13:18:46;;;;;;;7.60;5.70;;;6.80;99.90;;;;;;4991559;28;20219;-74
2022/01/22 13:21:15;;;;;;;7.93;6.10;;;6.80;99.90;;;;;;5003608;28;20227;-75
2022/01/22 13:23:58;;;;;;;8.50;4.70;;;6.90;99.90;;;;;;4984678;28;20677;-75
2022/01/22 13:26:50;;;;;;;4.47;3.40;;;7.00;99.90;;;;;;5002588;28;20219;-74
2022/01/22 13:29:25;;;;;;;5.57;3.13;;;6.90;99.90;;;;;;5005440;28;20192;-75
2022/01/22 13:32:32;;;;;;;5.60;3.40;;;6.90;99.90;;;;;;4987304;28;20203;-73
2022/01/22 13:35:23;;;;;;;4.40;2.87;;;6.90;99.90;;;;;;5000959;28;20677;-74
2022/01/22 13:38:19;;;;;;;7.00;3.57;;;7.00;99.90;;;;;;5001455;28;20235;-75
2022/01/22 13:49:25;;;;;;;6.40;3.93;;;6.80;99.90;;;;;;5006086;28;20202;-74
2022/01/22 13:51:54;;;;;;;6.67;3.50;;;6.80;99.90;;;;;;4996515;28;20555;-74
2022/01/22 13:54:43;;;;;;;6.00;4.00;;;6.80;99.90;;;;;;4995170;28;20666;-74
2022/01/22 13:57:12;;;;;;;6.63;4.03;;;6.90;99.90;;;;;;4993556;28;20689;-74
2022/01/22 13:59:41;;;;;;;8.80;4.50;;;7.00;99.90;;;;;;5006048;28;20204;-74
2022/01/22 14:02:16;;;;;;;7.37;5.00;;;7.00;99.90;;;;;;5009173;28;20215;-74
2022/01/22 14:04:49;;;;;;;5.20;4.50;;;6.90;99.90;;;;;;4995777;28;20561;-74
2022/01/22 14:07:21;;;;;;;8.10;5.63;;;6.90;99.90;;;;;;4993015;28;20589;-74
2022/01/22 14:09:54;;;;;;;8.97;5.53;;;6.90;99.90;;;;;;5003476;28;20201;-74
2022/01/22 14:12:23;;;;;;;8.50;6.07;;;6.80;99.90;;;;;;4986329;28;20212;-74
2022/01/22 14:14:59;;;;;;;7.60;6.37;;;6.90;99.90;;;;;;5006960;28;20216;-76
2022/01/22 14:17:37;;;;;;;10.37;7.50;;;6.90;99.90;;;;;;5002857;28;20227;-74
2022/01/22 14:20:08;;;;;;;12.27;7.07;;;6.90;99.90;;;;;;5007143;28;20674;-73
2022/01/22 14:22:58;;;;;;;8.93;6.80;;;6.80;99.90;;;;;;4995664;28;20654;-74
2022/01/22 14:25:26;;;;;;;10.17;7.70;;;7.00;99.90;;;;;;4993542;28;20207;-74
2022/01/22 14:28:09;;;;;;;10.80;7.57;;;6.90;99.90;;;;;;4993152;28;20234;-74
2022/01/22 14:30:42;;;;;;;10.43;7.40;;;6.90;99.90;;;;;;5009836;28;20207;-74
2022/01/22 14:33:13;;;;;;;11.17;7.70;;;6.80;99.90;;;;;;4993486;28;20605;-74
2022/01/22 14:35:43;;;;;;;11.83;7.33;;;6.90;99.90;;;;;;4995320;28;20207;-74
2022/01/22 14:38:33;;;;;;;12.03;7.97;;;6.90;99.90;;;;;;5009427;28;20227;-74
2022/01/22 14:47:11;;;;;;;12.07;8.60;;;6.90;99.90;;;;;;5007332;28;20224;-74
2022/01/22 14:49:42;;;;;;;9.30;7.73;;;6.80;99.90;;;;;;4998017;28;20693;-74
2022/01/22 14:52:13;;;;;;;12.50;8.97;;;6.90;99.90;;;;;;5008582;28;20213;-74
2022/01/22 14:54:47;;;;;;;13.77;8.63;;;6.80;99.90;;;;;;5006981;28;20203;-74
2022/01/22 14:57:20;;;;;;;12.13;8.93;;;6.90;99.90;;;;;;4997145;28;20227;-74
2022/01/22 14:59:48;;;;;;;11.10;8.13;;;6.80;99.90;;;;;;4993394;28;20200;-74
2022/01/22 15:02:17;;;;;;;15.33;7.80;;;6.90;99.90;;;;;;4984859;28;20200;-75